Time;durP1;ratioP1;P1;durP2;ratioP2;P2;SDS_P1;SDS_P2;PMS_P1;PMS_P2;Temp;Humidity;BMP_temperature;BMP_pressure;BME280_temperature;BME280_humidity;BME280_pressure;Samples;Min_cycle;Max_cycle;Signal;HPM_P1;HPM_P2
2022/02/19 00:00:44;;;;;;;46.40;29.25;;;7.40;95.10;;;;;;5085887;28;20052;-74
2022/02/19 00:03:11;;;;;;;49.45;27.48;;;7.20;95.50;;;;;;5092767;28;20051;-74
2022/02/19 00:05:39;;;;;;;52.00;28.58;;;7.20;95.20;;;;;;5093515;28;20044;-76
2022/02/19 00:08:13;;;;;;;45.45;26.92;;;7.00;95.80;;;;;;5091832;28;20050;-76
2022/02/19 00:10:45;;;;;;;54.20;28.13;;;7.10;95.90;;;;;;5065719;28;20473;-82
2022/02/19 00:13:16;;;;;;;48.58;27.70;;;7.30;95.30;;;;;;5066986;28;20495;-79
2022/02/19 00:15:44;;;;;;;46.35;26.58;;;7.20;95.30;;;;;;5090307;28;20036;-81
2022/02/19 00:18:11;;;;;;;47.03;28.48;;;7.20;95.30;;;;;;5091964;28;20036;-81
2022/02/19 00:20:38;;;;;;;47.33;26.05;;;7.20;95.30;;;;;;5091691;28;20048;-76
2022/02/19 00:23:06;;;;;;;47.53;26.42;;;7.10;95.60;;;;;;5090448;28;20044;-79
2022/02/19 00:25:33;;;;;;;42.25;27.02;;;7.10;95.70;;;;;;5092987;28;20043;-78
2022/02/19 00:28:01;;;;;;;47.20;26.08;;;6.90;96.20;;;;;;5092584;28;20048;-79
2022/02/19 00:30:28;;;;;;;45.30;26.27;;;6.80;97.20;;;;;;5091772;28;20115;-80
2022/02/19 00:32:55;;;;;;;43.75;26.25;;;6.70;97.80;;;;;;5085523;28;20044;-79
2022/02/19 00:35:22;;;;;;;40.55;24.90;;;6.60;98.70;;;;;;5079306;28;20040;-78
2022/02/19 00:37:50;;;;;;;36.33;21.98;;;6.60;99.10;;;;;;5078734;28;20052;-79
2022/02/19 00:40:17;;;;;;;36.60;20.98;;;6.70;97.80;;;;;;5079495;28;20048;-81
2022/02/19 00:42:44;;;;;;;30.52;18.48;;;6.80;96.70;;;;;;5078892;28;20055;-82
2022/02/19 00:45:11;;;;;;;29.02;17.58;;;6.70;96.00;;;;;;5079786;28;20425;-79
2022/02/19 00:47:39;;;;;;;30.42;17.92;;;6.60;96.00;;;;;;5086378;28;20051;-81
2022/02/19 00:50:08;;;;;;;32.35;18.20;;;6.60;96.00;;;;;;5084275;28;20401;-79
2022/02/19 00:52:35;;;;;;;25.65;16.42;;;6.60;96.10;;;;;;5091038;28;20036;-80
2022/02/19 00:55:03;;;;;;;24.98;15.48;;;6.70;95.70;;;;;;5078977;28;20043;-76
2022/02/19 00:57:30;;;;;;;30.80;14.93;;;6.50;96.10;;;;;;5065991;28;20131;-80
2022/02/19 01:00:11;;;;;;;29.13;15.73;;;6.50;95.90;;;;;;5090603;28;20036;-76
2022/02/19 01:02:39;;;;;;;25.67;15.15;;;6.50;95.80;;;;;;5090558;28;20044;-85
2022/02/19 01:05:07;;;;;;;21.27;14.75;;;6.30;95.70;;;;;;5090727;28;20036;-82
2022/02/19 01:07:35;;;;;;;22.13;15.32;;;6.30;96.10;;;;;;5090582;28;20051;-81
2022/02/19 01:10:04;;;;;;;27.23;16.48;;;6.30;96.40;;;;;;5079253;28;20043;-81
2022/02/19 01:12:31;;;;;;;25.92;14.68;;;6.30;96.80;;;;;;5079108;28;20055;-83
2022/02/19 01:14:58;;;;;;;22.33;14.77;;;5.90;97.50;;;;;;5057693;28;20175;-80
2022/02/19 01:17:26;;;;;;;24.95;16.00;;;5.70;98.80;;;;;;5092078;28;20472;-80
2022/02/19 01:19:53;;;;;;;22.77;15.73;;;5.90;99.60;;;;;;5091488;28;20402;-78
2022/02/19 01:22:20;;;;;;;27.55;16.00;;;5.90;99.60;;;;;;5092110;28;20052;-78
2022/02/19 01:24:48;;;;;;;24.55;14.60;;;6.00;99.10;;;;;;5073742;28;20075;-76
2022/02/19 01:27:15;;;;;;;23.83;15.13;;;6.10;99.10;;;;;;5081909;28;20508;-84
2022/02/19 01:29:43;;;;;;;26.45;15.75;;;6.10;99.00;;;;;;5091469;28;20036;-79
2022/02/19 01:32:10;;;;;;;32.90;16.90;;;6.10;99.20;;;;;;5081182;28;20448;-83
2022/02/19 01:34:38;;;;;;;59.92;31.05;;;6.00;99.50;;;;;;5087355;28;20497;-78
2022/02/19 01:37:05;;;;;;;33.30;20.67;;;6.00;99.90;;;;;;5107426;28;20047;-73
2022/02/19 01:39:32;;;;;;;29.80;17.73;;;6.10;99.70;;;;;;5092721;28;20044;-84
2022/02/19 01:42:00;;;;;;;32.17;17.48;;;5.80;99.80;;;;;;5057425;28;20048;-80
2022/02/19 01:44:39;;;;;;;29.02;17.05;;;5.70;99.90;;;;;;5056789;28;20040;-81
2022/02/19 01:47:07;;;;;;;31.17;18.80;;;5.60;99.90;;;;;;5086146;28;20544;-80
2022/02/19 01:49:34;;;;;;;26.25;16.73;;;5.40;99.90;;;;;;5070544;28;20048;-77
2022/02/19 01:52:02;;;;;;;30.58;17.52;;;5.50;99.90;;;;;;5057135;28;20052;-78
2022/02/19 01:54:30;;;;;;;32.13;18.85;;;5.60;99.90;;;;;;5073640;28;20059;-79
2022/02/19 01:57:00;;;;;;;33.40;17.67;;;5.30;99.90;;;;;;5088088;28;20040;-77
2022/02/19 01:59:27;;;;;;;29.35;17.88;;;5.20;99.90;;;;;;5089948;28;20051;-79
2022/02/19 02:01:54;;;;;;;30.45;17.27;;;5.60;99.90;;;;;;5090381;28;20054;-77
2022/02/19 02:04:22;;;;;;;31.83;18.50;;;5.70;99.90;;;;;;5089974;28;20139;-78
2022/02/19 02:06:49;;;;;;;28.63;18.90;;;5.80;99.90;;;;;;5090327;28;20044;-76
2022/02/19 02:09:17;;;;;;;29.50;18.67;;;5.60;99.90;;;;;;5089526;28;20044;-78
2022/02/19 02:11:45;;;;;;;32.03;17.15;;;5.60;99.90;;;;;;5089547;28;20056;-76
2022/02/19 02:14:14;;;;;;;29.77;17.45;;;5.60;99.90;;;;;;5073062;28;20047;-75
2022/02/19 02:16:43;;;;;;;29.60;16.50;;;5.60;99.90;;;;;;5091191;28;20052;-75
2022/02/19 02:19:11;;;;;;;28.42;17.42;;;5.70;99.90;;;;;;5089601;28;20063;-78
2022/02/19 02:21:39;;;;;;;28.15;17.23;;;5.70;99.90;;;;;;5073130;28;20501;-75
2022/02/19 02:24:06;;;;;;;30.10;18.73;;;5.80;99.90;;;;;;5090902;28;20044;-76
2022/02/19 02:26:35;;;;;;;26.35;17.00;;;5.50;99.90;;;;;;5090131;28;20467;-77
2022/02/19 02:29:02;;;;;;;29.00;18.67;;;5.30;99.90;;;;;;5091162;28;20086;-78
2022/02/19 02:31:29;;;;;;;27.48;17.73;;;5.40;99.90;;;;;;5073458;28;20055;-78
2022/02/19 02:33:58;;;;;;;32.70;18.25;;;5.60;99.90;;;;;;5090011;28;20434;-76
2022/02/19 02:36:25;;;;;;;25.63;16.58;;;5.80;99.90;;;;;;5091208;28;20044;-76
2022/02/19 02:38:53;;;;;;;33.35;19.50;;;5.90;99.90;;;;;;5089397;28;20040;-78
2022/02/19 02:41:21;;;;;;;35.03;19.73;;;5.90;99.90;;;;;;5090035;28;20745;-78
2022/02/19 02:43:48;;;;;;;36.78;19.55;;;5.90;99.90;;;;;;5090926;28;20040;-77
2022/02/19 02:46:18;;;;;;;31.10;17.87;;;5.70;99.90;;;;;;5091212;28;20331;-77
2022/02/19 02:48:45;;;;;;;30.10;19.45;;;5.70;99.90;;;;;;5090470;28;20285;-78
2022/02/19 02:51:12;;;;;;;31.63;19.58;;;5.70;99.90;;;;;;5089963;28;20040;-79
2022/02/19 02:53:41;;;;;;;33.38;19.92;;;5.70;99.90;;;;;;5073212;28;20101;-75
2022/02/19 02:56:09;;;;;;;30.77;19.70;;;5.70;99.90;;;;;;5082435;28;20049;-77
2022/02/19 02:58:36;;;;;;;31.85;20.23;;;5.70;99.90;;;;;;5072730;28;20133;-79
2022/02/19 03:01:04;;;;;;;37.20;19.52;;;5.70;99.90;;;;;;5073983;28;20053;-77
2022/02/19 03:03:33;;;;;;;37.60;20.58;;;5.60;99.90;;;;;;5072503;28;20084;-76
2022/02/19 03:06:03;;;;;;;33.47;19.00;;;5.50;99.90;;;;;;5074222;28;20036;-76
2022/02/19 03:08:31;;;;;;;30.77;18.23;;;5.30;99.90;;;;;;5072796;28;20036;-76
2022/02/19 03:10:58;;;;;;;30.13;18.10;;;5.10;99.90;;;;;;5072425;28;20044;-77
2022/02/19 03:13:25;;;;;;;38.40;20.38;;;5.10;99.90;;;;;;5074063;28;20037;-77
2022/02/19 03:15:52;;;;;;;43.13;22.17;;;5.10;99.90;;;;;;5073019;28;20044;-77
2022/02/19 03:18:20;;;;;;;35.15;21.98;;;5.20;99.90;;;;;;5073507;28;20099;-76
2022/02/19 03:20:47;;;;;;;39.45;20.73;;;5.00;99.90;;;;;;5072234;28;20036;-76
2022/02/19 03:23:14;;;;;;;37.60;22.05;;;5.10;99.90;;;;;;5073809;28;20044;-79
2022/02/19 03:25:42;;;;;;;39.05;21.77;;;5.00;99.90;;;;;;5072671;28;20062;-77
2022/02/19 03:28:09;;;;;;;38.95;20.17;;;5.20;99.90;;;;;;5073409;28;20143;-78
2022/02/19 03:30:37;;;;;;;35.72;21.73;;;5.20;99.90;;;;;;5074179;28;20037;-77
2022/02/19 03:33:04;;;;;;;41.03;20.95;;;5.20;99.90;;;;;;5072239;28;20751;-77
2022/02/19 03:35:31;;;;;;;35.15;20.10;;;5.30;99.90;;;;;;5073843;28;20410;-76
2022/02/19 03:37:58;;;;;;;33.83;18.83;;;5.20;99.90;;;;;;5072042;28;20114;-78
2022/02/19 03:40:26;;;;;;;32.38;18.90;;;5.00;99.90;;;;;;5073599;28;20039;-78
2022/02/19 03:42:53;;;;;;;34.45;19.85;;;5.20;99.90;;;;;;5073353;28;20053;-78
2022/02/19 03:45:20;;;;;;;30.48;19.08;;;5.00;99.90;;;;;;5073723;28;20155;-78
2022/02/19 03:47:47;;;;;;;30.65;18.90;;;5.10;99.90;;;;;;5055254;28;20063;-78
2022/02/19 03:50:16;;;;;;;30.55;18.00;;;5.10;99.90;;;;;;5073747;28;20041;-77
2022/02/19 03:52:45;;;;;;;32.65;17.30;;;4.90;99.90;;;;;;5072312;28;20370;-76
2022/02/19 03:55:12;;;;;;;27.25;16.25;;;4.50;99.90;;;;;;5072048;28;20379;-74
2022/02/19 03:57:40;;;;;;;24.17;15.95;;;4.70;99.90;;;;;;5071877;28;20413;-78
2022/02/19 04:00:11;;;;;;;24.38;15.57;;;5.00;99.90;;;;;;5055036;28;20048;-79
2022/02/19 04:02:43;;;;;;;22.55;14.68;;;4.70;99.90;;;;;;5071415;28;20063;-79
2022/02/19 04:05:12;;;;;;;30.60;16.35;;;4.60;99.90;;;;;;5071896;28;20045;-79
2022/02/19 04:07:40;;;;;;;27.15;16.30;;;4.80;99.90;;;;;;5070681;28;20494;-77
2022/02/19 04:10:08;;;;;;;26.63;15.93;;;4.90;99.90;;;;;;5072734;28;20509;-77
2022/02/19 04:12:36;;;;;;;22.55;14.45;;;5.00;99.90;;;;;;5071636;28;20481;-75
2022/02/19 04:15:04;;;;;;;23.85;15.00;;;5.10;99.90;;;;;;5073029;28;20074;-76
2022/02/19 04:17:31;;;;;;;25.25;14.85;;;5.00;99.90;;;;;;5072664;28;20500;-77
2022/02/19 04:19:58;;;;;;;25.05;15.85;;;5.10;99.90;;;;;;5072443;28;20401;-79
2022/02/19 04:22:25;;;;;;;29.77;16.52;;;5.10;99.90;;;;;;5071539;28;20055;-76
2022/02/19 04:24:53;;;;;;;23.23;14.82;;;4.90;99.90;;;;;;5072821;28;20413;-78
2022/02/19 04:27:20;;;;;;;24.90;14.98;;;5.10;99.90;;;;;;5071462;28;20040;-79
2022/02/19 04:29:48;;;;;;;25.85;14.48;;;4.60;99.90;;;;;;5087821;28;20052;-76
2022/02/19 04:32:15;;;;;;;23.10;14.05;;;4.60;99.90;;;;;;5070980;28;20404;-78
2022/02/19 04:34:43;;;;;;;25.33;14.20;;;4.70;99.90;;;;;;5071094;28;20087;-79
2022/02/19 04:37:11;;;;;;;25.75;14.48;;;4.50;99.90;;;;;;5054318;28;20048;-78
2022/02/19 04:39:38;;;;;;;23.35;13.18;;;4.70;99.90;;;;;;5087942;28;20071;-80
2022/02/19 04:42:05;;;;;;;24.75;12.93;;;4.70;99.90;;;;;;5072330;28;20054;-79
2022/02/19 04:44:34;;;;;;;21.60;12.93;;;4.70;99.90;;;;;;5072197;28;20062;-80
2022/02/19 04:47:01;;;;;;;21.15;12.65;;;4.60;99.90;;;;;;5072229;28;20033;-78
2022/02/19 04:49:28;;;;;;;21.23;12.52;;;4.80;99.90;;;;;;5087516;28;20052;-79
2022/02/19 04:51:56;;;;;;;22.20;12.15;;;4.90;99.90;;;;;;5072000;28;20047;-75
2022/02/19 04:54:23;;;;;;;18.90;12.35;;;4.90;99.90;;;;;;5071751;28;20056;-77
2022/02/19 04:56:50;;;;;;;19.45;13.40;;;4.60;99.90;;;;;;5090343;28;20048;-77
2022/02/19 04:59:17;;;;;;;23.58;13.23;;;4.50;99.90;;;;;;5090509;28;20060;-79
2022/02/19 05:01:45;;;;;;;23.88;14.13;;;4.30;99.90;;;;;;5092336;28;20040;-77
2022/02/19 05:04:13;;;;;;;22.55;14.25;;;4.20;99.90;;;;;;5092168;28;20040;-79
2022/02/19 05:06:40;;;;;;;23.45;13.77;;;4.20;99.90;;;;;;5090659;28;20051;-78
2022/02/19 05:09:07;;;;;;;21.52;14.02;;;4.20;99.90;;;;;;5091701;28;20044;-79
2022/02/19 05:11:34;;;;;;;25.02;14.10;;;3.90;99.90;;;;;;5091767;28;20385;-76
2022/02/19 05:14:02;;;;;;;22.83;12.52;;;3.80;99.90;;;;;;5091647;28;20042;-79
2022/02/19 05:16:29;;;;;;;19.90;12.20;;;4.00;99.90;;;;;;5092008;28;20412;-79
2022/02/19 05:18:56;;;;;;;20.25;12.52;;;4.10;99.90;;;;;;5091373;28;20040;-79
2022/02/19 05:21:23;;;;;;;27.42;13.07;;;4.00;99.90;;;;;;5090452;28;20051;-79
2022/02/19 05:23:50;;;;;;;17.67;11.82;;;4.10;99.90;;;;;;5091519;28;20039;-80
2022/02/19 05:26:18;;;;;;;18.80;11.93;;;4.10;99.90;;;;;;5091996;28;20036;-78
2022/02/19 05:28:45;;;;;;;22.98;12.88;;;3.90;99.90;;;;;;5090986;28;20066;-79
2022/02/19 05:31:12;;;;;;;23.95;11.98;;;3.90;99.90;;;;;;5091835;28;20143;-77
2022/02/19 05:33:39;;;;;;;22.08;12.70;;;4.10;99.90;;;;;;5091423;28;20074;-78
2022/02/19 05:36:07;;;;;;;25.52;12.63;;;3.70;99.90;;;;;;5090272;28;20051;-78
2022/02/19 05:38:34;;;;;;;26.20;11.85;;;3.50;99.90;;;;;;5089786;28;20040;-78
2022/02/19 05:41:01;;;;;;;18.48;10.98;;;3.80;99.90;;;;;;5091415;28;20048;-78
2022/02/19 05:43:29;;;;;;;18.38;11.23;;;3.80;99.90;;;;;;5091209;28;20044;-78
2022/02/19 05:45:56;;;;;;;19.63;11.00;;;4.00;99.90;;;;;;5090191;28;20097;-78
2022/02/19 05:48:23;;;;;;;17.92;10.60;;;4.10;99.90;;;;;;5090073;28;20052;-77
2022/02/19 05:50:50;;;;;;;20.83;10.20;;;4.00;99.90;;;;;;5091771;28;20421;-78
2022/02/19 05:53:18;;;;;;;13.65;10.55;;;4.00;99.90;;;;;;5091366;28;20501;-77
2022/02/19 05:55:45;;;;;;;19.27;11.13;;;3.90;99.90;;;;;;5089595;28;20028;-77
2022/02/19 05:58:13;;;;;;;21.30;11.05;;;4.00;99.90;;;;;;5070058;28;20063;-79
2022/02/19 06:00:40;;;;;;;17.20;10.05;;;4.20;99.90;;;;;;5071149;28;20059;-75
2022/02/19 06:03:07;;;;;;;21.50;11.48;;;4.00;99.90;;;;;;5071122;28;20463;-76
2022/02/19 06:05:34;;;;;;;19.08;10.55;;;4.10;99.90;;;;;;5071329;28;20040;-78
2022/02/19 06:08:02;;;;;;;12.95;9.32;;;4.30;99.90;;;;;;5069471;28;20048;-78
2022/02/19 06:10:29;;;;;;;18.77;10.38;;;3.80;99.90;;;;;;5071239;28;20043;-79
2022/02/19 06:12:56;;;;;;;16.33;10.82;;;3.80;99.90;;;;;;5071033;28;20041;-79
2022/02/19 06:15:23;;;;;;;14.70;10.07;;;3.90;99.90;;;;;;5071514;28;20408;-78
2022/02/19 06:17:51;;;;;;;20.83;10.02;;;4.30;99.90;;;;;;5069178;28;20508;-79
2022/02/19 06:20:18;;;;;;;17.95;10.18;;;4.10;99.90;;;;;;5069591;28;20535;-79
2022/02/19 06:22:45;;;;;;;18.95;10.18;;;4.00;99.90;;;;;;5070927;28;20037;-80
2022/02/19 06:25:12;;;;;;;15.55;10.52;;;4.00;99.90;;;;;;5069476;28;20063;-78
2022/02/19 06:27:44;;;;;;;15.80;10.50;;;4.30;99.90;;;;;;5069284;28;20041;-78
2022/02/19 06:30:13;;;;;;;17.00;11.90;;;3.80;99.90;;;;;;5070841;28;20044;-76
2022/02/19 06:32:42;;;;;;;15.90;11.52;;;3.60;99.90;;;;;;5073451;28;20120;-76
2022/02/19 06:35:10;;;;;;;21.45;13.07;;;3.70;99.90;;;;;;5074500;28;20036;-79
2022/02/19 06:37:41;;;;;;;19.33;12.13;;;4.10;99.90;;;;;;5073462;28;20423;-79
2022/02/19 06:40:11;;;;;;;20.38;12.65;;;4.30;99.90;;;;;;5073060;28;20041;-79
2022/02/19 06:42:38;;;;;;;17.58;12.05;;;4.50;99.90;;;;;;5072967;28;20056;-76
2022/02/19 06:45:06;;;;;;;23.17;12.32;;;4.70;99.90;;;;;;5074242;28;20040;-78
2022/02/19 06:47:34;;;;;;;24.15;12.13;;;4.80;99.90;;;;;;5074393;28;20402;-77
2022/02/19 06:50:07;;;;;;;21.88;12.07;;;4.70;99.90;;;;;;5072956;28;20036;-77
2022/02/19 06:52:35;;;;;;;19.38;12.70;;;4.60;99.90;;;;;;5073397;28;20402;-77
2022/02/19 06:55:03;;;;;;;22.77;13.70;;;4.80;99.90;;;;;;5072362;28;20049;-77
2022/02/19 06:57:31;;;;;;;21.63;13.07;;;5.10;99.90;;;;;;5087913;28;20050;-75
2022/02/19 06:59:58;;;;;;;21.45;12.85;;;5.30;99.90;;;;;;5094334;28;20056;-79
2022/02/19 07:02:25;;;;;;;19.63;13.45;;;5.50;99.90;;;;;;5094448;28;20405;-77
2022/02/19 07:04:52;;;;;;;21.13;13.77;;;5.60;99.90;;;;;;5093342;28;20046;-79
2022/02/19 07:07:19;;;;;;;21.90;13.98;;;5.50;99.90;;;;;;5092726;28;20032;-78
2022/02/19 07:09:47;;;;;;;22.92;14.75;;;5.70;99.90;;;;;;5109921;28;20393;-78
2022/02/19 07:12:14;;;;;;;20.73;13.43;;;5.70;99.90;;;;;;5076344;28;20126;-78
2022/02/19 07:14:42;;;;;;;21.33;12.95;;;5.60;99.90;;;;;;5092579;28;20040;-77
2022/02/19 07:17:10;;;;;;;27.48;14.77;;;5.50;99.90;;;;;;5093978;28;20497;-77
2022/02/19 07:19:37;;;;;;;28.60;14.50;;;5.70;99.90;;;;;;5094091;28;20044;-78
2022/02/19 07:22:10;;;;;;;25.33;14.50;;;5.90;99.90;;;;;;5093960;28;20127;-78
2022/02/19 07:24:37;;;;;;;32.00;15.50;;;6.10;99.90;;;;;;5092202;28;20044;-76
2022/02/19 07:27:05;;;;;;;25.02;15.10;;;6.00;99.90;;;;;;5094134;28;20036;-77
2022/02/19 07:29:32;;;;;;;25.88;13.80;;;6.00;99.90;;;;;;5094097;28;20047;-79
2022/02/19 07:31:59;;;;;;;22.60;12.50;;;6.20;99.90;;;;;;5092764;28;20444;-78
2022/02/19 07:34:27;;;;;;;28.48;15.88;;;6.30;99.90;;;;;;5093747;28;20119;-78
2022/02/19 07:36:54;;;;;;;25.33;14.82;;;6.50;99.90;;;;;;5093492;28;20040;-78
2022/02/19 07:39:21;;;;;;;21.70;14.38;;;6.50;99.50;;;;;;5093132;28;20044;-79
2022/02/19 07:41:51;;;;;;;26.17;14.65;;;6.60;99.20;;;;;;5075748;28;20062;-80
2022/02/19 07:44:18;;;;;;;26.42;16.55;;;6.70;99.80;;;;;;5092249;28;20040;-79
2022/02/19 07:46:46;;;;;;;23.65;15.32;;;6.90;99.50;;;;;;5092019;28;20043;-78
2022/02/19 08:00:18;;;;;;;26.63;14.40;;;7.80;96.80;;;;;;5072640;28;20061;-79
2022/02/19 08:02:46;;;;;;;22.25;14.60;;;7.80;96.20;;;;;;5055041;28;20435;-81
2022/02/19 08:05:13;;;;;;;28.08;14.85;;;8.00;96.10;;;;;;5072814;28;20073;-81
2022/02/19 08:07:40;;;;;;;25.73;14.32;;;8.00;95.50;;;;;;5054651;28;20402;-77
2022/02/19 08:10:08;;;;;;;24.30;14.57;;;8.00;95.60;;;;;;5055123;28;20374;-78
2022/02/19 08:12:35;;;;;;;28.98;17.40;;;8.20;95.30;;;;;;5072977;28;20115;-77
2022/02/19 08:15:03;;;;;;;19.70;12.40;;;8.50;94.90;;;;;;5054652;28;20397;-80
2022/02/19 08:17:31;;;;;;;24.13;15.30;;;8.20;92.80;;;;;;5055204;28;20398;-79
2022/02/19 08:19:59;;;;;;;24.85;16.20;;;8.30;92.90;;;;;;5072395;28;20041;-80
2022/02/19 08:22:26;;;;;;;28.20;15.95;;;8.60;93.10;;;;;;5055263;28;20397;-80
2022/02/19 08:24:53;;;;;;;29.90;16.42;;;8.80;92.30;;;;;;5054645;28;20045;-79
2022/02/19 08:27:21;;;;;;;24.23;15.27;;;8.80;91.60;;;;;;5054944;28;20041;-79
2022/02/19 08:29:48;;;;;;;28.67;15.38;;;9.00;91.60;;;;;;5072553;28;20041;-80
2022/02/19 08:32:15;;;;;;;28.58;16.08;;;9.30;91.20;;;;;;5086055;28;20036;-77
2022/02/19 08:34:42;;;;;;;20.65;12.77;;;9.30;90.80;;;;;;5064634;28;20501;-79
2022/02/19 08:37:10;;;;;;;21.05;13.07;;;9.10;87.70;;;;;;5081502;28;20040;-75
2022/02/19 08:39:37;;;;;;;22.50;12.93;;;8.80;88.20;;;;;;5087974;28;20609;-75
2022/02/19 08:42:05;;;;;;;20.95;13.30;;;8.60;89.00;;;;;;5081920;28;20389;-77
2022/02/19 08:44:32;;;;;;;20.05;13.00;;;8.60;89.80;;;;;;5080393;28;20516;-77
2022/02/19 08:46:59;;;;;;;28.25;12.10;;;8.80;88.80;;;;;;5081205;28;20586;-78
2022/02/19 08:49:27;;;;;;;27.73;12.50;;;8.80;88.10;;;;;;5090490;28;20036;-78
2022/02/19 08:51:54;;;;;;;23.67;13.23;;;9.10;87.60;;;;;;5090596;28;20386;-78
2022/02/19 08:54:21;;;;;;;25.58;14.57;;;9.30;85.60;;;;;;5080058;28;20052;-77
2022/02/19 08:56:50;;;;;;;23.88;13.07;;;9.80;85.20;;;;;;5091858;28;20055;-78
2022/02/19 08:59:17;;;;;;;25.65;13.00;;;10.10;81.40;;;;;;5090150;28;20040;-78
2022/02/19 09:01:45;;;;;;;35.80;21.17;;;10.30;81.50;;;;;;5091028;28;20044;-78
2022/02/19 09:04:13;;;;;;;24.13;13.93;;;10.80;82.50;;;;;;5091340;28;20401;-78
2022/02/19 09:06:40;;;;;;;46.53;24.98;;;10.80;75.10;;;;;;5078894;28;20390;-76
2022/02/19 09:09:12;;;;;;;17.08;10.48;;;10.90;77.20;;;;;;5077519;28;20485;-74
2022/02/19 09:11:40;;;;;;;15.35;9.27;;;11.00;72.30;;;;;;5068505;28;20110;-74
2022/02/19 09:14:07;;;;;;;15.10;8.65;;;10.90;71.30;;;;;;5085102;28;20085;-74
2022/02/19 09:16:36;;;;;;;16.60;10.48;;;11.00;70.20;;;;;;5069319;28;20239;-71
2022/02/19 09:19:05;;;;;;;20.58;8.95;;;11.20;70.70;;;;;;5090136;28;20047;-75
2022/02/19 09:21:33;;;;;;;15.27;8.57;;;11.60;69.30;;;;;;5091332;28;20413;-74
2022/02/19 09:24:00;;;;;;;14.57;8.30;;;11.30;69.30;;;;;;5088030;28;20051;-75
2022/02/19 09:26:28;;;;;;;14.68;7.57;;;11.60;69.40;;;;;;5086160;28;20516;-77
2022/02/19 09:28:56;;;;;;;16.83;8.73;;;11.60;67.50;;;;;;5069439;28;20036;-76
2022/02/19 09:31:24;;;;;;;13.98;8.88;;;11.90;68.20;;;;;;5036843;28;20048;-77
2022/02/19 09:33:51;;;;;;;14.95;8.85;;;12.20;67.50;;;;;;5070615;28;20044;-76
2022/02/19 09:36:19;;;;;;;14.30;9.13;;;12.30;66.70;;;;;;5056966;28;20489;-78
2022/02/19 09:38:48;;;;;;;12.85;8.70;;;12.20;65.30;;;;;;5089187;28;20052;-78
2022/02/19 09:41:16;;;;;;;18.67;9.55;;;11.50;66.00;;;;;;5076294;28;20055;-79
2022/02/19 09:43:43;;;;;;;11.65;7.97;;;11.40;66.80;;;;;;5069965;28;20863;-75
2022/02/19 09:46:14;;;;;;;18.38;9.02;;;11.40;66.80;;;;;;5070573;28;20048;-77
2022/02/19 09:48:46;;;;;;;26.15;17.60;;;11.80;69.10;;;;;;5069464;28;20098;-74
2022/02/19 09:51:14;;;;;;;21.30;13.10;;;12.10;69.10;;;;;;5070003;28;20397;-77
2022/02/19 09:53:41;;;;;;;19.48;10.15;;;12.50;70.30;;;;;;5068857;28;20064;-74
2022/02/19 09:56:08;;;;;;;18.60;10.63;;;12.40;65.10;;;;;;5069026;28;20108;-76
2022/02/19 09:58:37;;;;;;;18.95;10.75;;;12.70;65.40;;;;;;5083792;28;20400;-77
2022/02/19 10:01:22;;;;;;;16.45;9.70;;;13.00;64.10;;;;;;5072218;28;20063;-75
2022/02/19 10:04:01;;;;;;;15.07;9.35;;;13.00;63.10;;;;;;5090416;28;20477;-74
2022/02/19 10:06:34;;;;;;;15.55;9.52;;;13.10;62.80;;;;;;5067746;28;20059;-82
2022/02/19 10:09:28;;;;;;;15.68;9.55;;;13.30;62.90;;;;;;5073724;28;20414;-79
2022/02/19 10:12:08;;;;;;;17.65;8.90;;;13.40;61.80;;;;;;5088487;28;20052;-82
2022/02/19 10:14:37;;;;;;;15.93;8.45;;;13.50;61.30;;;;;;5093925;28;20051;-79
2022/02/19 10:17:13;;;;;;;15.63;9.55;;;13.70;61.20;;;;;;5094332;28;20039;-80
2022/02/19 10:19:47;;;;;;;21.15;13.30;;;13.90;61.10;;;;;;5095053;28;20048;-80
2022/02/19 10:22:18;;;;;;;55.17;31.35;;;14.10;63.40;;;;;;5093994;28;20036;-80
2022/02/19 10:24:47;;;;;;;31.60;18.48;;;14.70;64.60;;;;;;5095028;28;20071;-80
2022/02/19 10:27:16;;;;;;;19.35;11.73;;;14.60;62.10;;;;;;5093948;28;20036;-83
2022/02/19 10:30:04;;;;;;;15.35;10.88;;;14.70;61.60;;;;;;5094900;28;20127;-84
2022/02/19 10:32:50;;;;;;;18.17;9.93;;;15.00;61.30;;;;;;5110877;28;20435;-85
2022/02/19 10:35:18;;;;;;;16.30;10.02;;;15.10;64.50;;;;;;5110619;28;20048;-86
2022/02/19 10:37:48;;;;;;;17.83;9.88;;;15.60;59.70;;;;;;5093582;28;20468;-81
2022/02/19 10:40:25;;;;;;;13.18;8.50;;;15.70;59.00;;;;;;5096266;28;20079;-88
2022/02/19 10:42:57;;;;;;;16.60;7.97;;;15.40;57.90;;;;;;5111220;28;20488;-86
2022/02/19 10:45:28;;;;;;;12.68;7.70;;;14.70;58.20;;;;;;5094671;28;20055;-89
2022/02/19 10:48:14;;;;;;;14.35;7.63;;;14.60;57.60;;;;;;5110769;28;20042;-84
2022/02/19 10:50:43;;;;;;;14.15;7.40;;;14.80;58.30;;;;;;5093681;28;20408;-87
2022/02/19 10:53:26;;;;;;;12.43;7.05;;;15.50;57.60;;;;;;5091385;28;20078;-84
2022/02/19 10:55:56;;;;;;;13.60;7.10;;;16.10;57.10;;;;;;5093508;28;20071;-86
2022/02/19 10:58:24;;;;;;;14.68;7.00;;;15.20;55.50;;;;;;5078497;28;20090;-82
2022/02/19 11:00:52;;;;;;;10.45;6.95;;;14.60;56.00;;;;;;5071089;28;20195;-85
2022/02/19 11:03:21;;;;;;;13.27;6.32;;;14.80;57.00;;;;;;5071137;28;20429;-81
2022/02/19 11:05:49;;;;;;;12.70;6.10;;;15.40;55.10;;;;;;5072202;28;20120;-81
2022/02/19 11:08:22;;;;;;;11.63;7.03;;;16.30;56.30;;;;;;5055279;28;20502;-80
2022/02/19 11:10:51;;;;;;;11.75;7.60;;;16.50;54.30;;;;;;5073854;28;20041;-81
2022/02/19 11:13:18;;;;;;;15.90;8.32;;;16.70;53.90;;;;;;5074091;28;20094;-85
2022/02/19 11:15:46;;;;;;;22.10;8.23;;;16.10;53.60;;;;;;5084490;28;20028;-81
2022/02/19 11:18:14;;;;;;;118.68;73.40;;;16.80;54.00;;;;;;5093160;28;20052;-78
2022/02/19 11:20:41;;;;;;;18.17;10.73;;;17.30;53.30;;;;;;5094287;28;20048;-82
2022/02/19 11:23:11;;;;;;;15.15;7.93;;;16.30;52.10;;;;;;5094016;28;20055;-83
2022/02/19 11:25:39;;;;;;;19.42;11.02;;;16.40;54.60;;;;;;5094150;28;20392;-86
2022/02/19 11:28:10;;;;;;;28.33;16.67;;;16.00;53.10;;;;;;5092666;28;20504;-82
2022/02/19 11:31:00;;;;;;;14.93;8.57;;;16.00;52.70;;;;;;5091980;28;20563;-88
2022/02/19 11:33:31;;;;;;;11.93;6.83;;;16.30;52.70;;;;;;5094299;28;20455;-80
2022/02/19 11:36:00;;;;;;;15.15;6.60;;;16.30;52.50;;;;;;5093886;28;20287;-86
2022/02/19 11:38:35;;;;;;;8.35;5.47;;;16.40;53.10;;;;;;5093604;28;20428;-84
2022/02/19 11:41:07;;;;;;;10.10;5.93;;;16.80;51.90;;;;;;5074410;28;20044;-84
2022/02/19 11:43:45;;;;;;;13.60;6.13;;;16.50;52.10;;;;;;5091266;28;20047;-81
2022/02/19 11:46:15;;;;;;;11.63;5.47;;;16.90;52.40;;;;;;5092479;28;20044;-80
2022/02/19 11:48:48;;;;;;;12.15;6.38;;;16.70;51.30;;;;;;5075642;28;20453;-82
2022/02/19 11:51:21;;;;;;;16.60;11.30;;;17.20;52.20;;;;;;5094332;28;20423;-83
2022/02/19 11:53:51;;;;;;;26.98;16.88;;;17.70;52.40;;;;;;5094224;28;20098;-80
2022/02/19 11:56:32;;;;;;;48.80;30.70;;;18.90;51.40;;;;;;5087611;28;20463;-83
2022/02/19 11:59:01;;;;;;;13.10;7.43;;;19.50;49.80;;;;;;5072658;28;20037;-79
2022/02/19 12:01:30;;;;;;;10.18;6.38;;;19.20;49.20;;;;;;5072948;28;20068;-79
2022/02/19 12:04:09;;;;;;;15.52;7.35;;;19.50;49.20;;;;;;5072958;28;20047;-85
2022/02/19 12:06:38;;;;;;;12.30;6.97;;;19.60;48.70;;;;;;5054827;28;20057;-80
2022/02/19 12:09:08;;;;;;;14.10;6.68;;;19.70;48.20;;;;;;5072607;28;20406;-81
2022/02/19 12:12:04;;;;;;;16.77;7.25;;;19.80;47.90;;;;;;5072838;28;20036;-83
2022/02/19 12:14:41;;;;;;;11.70;5.88;;;19.60;47.70;;;;;;5073173;28;20460;-83
2022/02/19 12:17:16;;;;;;;14.25;4.88;;;19.90;47.80;;;;;;5088763;28;20418;-81
2022/02/19 12:19:52;;;;;;;10.57;5.63;;;19.90;47.10;;;;;;5072814;28;20435;-81
2022/02/19 12:22:37;;;;;;;11.93;6.18;;;19.80;48.10;;;;;;5071826;28;20041;-80
2022/02/19 12:25:12;;;;;;;10.40;5.90;;;20.40;47.50;;;;;;5054873;28;20051;-83
2022/02/19 12:27:40;;;;;;;8.93;5.32;;;20.70;46.90;;;;;;5070303;28;20052;-82
2022/02/19 12:30:26;;;;;;;14.68;6.20;;;20.40;46.40;;;;;;5055414;28;20048;-86
2022/02/19 12:33:00;;;;;;;11.27;6.43;;;21.00;46.70;;;;;;5071173;28;20045;-82
2022/02/19 12:35:39;;;;;;;10.82;5.28;;;21.70;46.40;;;;;;5055807;28;20044;-90
2022/02/19 12:38:06;;;;;;;9.35;5.53;;;21.80;45.30;;;;;;5072769;28;20063;-84
2022/02/19 12:40:35;;;;;;;9.82;5.90;;;22.30;45.20;;;;;;5056152;28;20060;-84
2022/02/19 12:43:03;;;;;;;11.98;5.72;;;22.50;44.40;;;;;;5074025;28;20043;-85
2022/02/19 12:45:34;;;;;;;11.95;6.10;;;22.90;44.40;;;;;;5072169;28;20056;-84
2022/02/19 12:48:02;;;;;;;10.20;5.43;;;22.80;44.30;;;;;;5071855;28;20397;-91
2022/02/19 12:50:30;;;;;;;10.82;5.55;;;22.90;43.20;;;;;;5072418;28;20087;-87
2022/02/19 12:52:58;;;;;;;9.40;5.80;;;23.40;43.70;;;;;;5070660;28;20458;-85
2022/02/19 12:55:27;;;;;;;9.88;5.47;;;23.10;42.70;;;;;;5072508;28;20493;-84